Terminal Aerodrome Forecast
Issued by NWS

Home | Current Version | Previous Version | Text Only | Print | Product List | Glossary On
Versions: 1 2 3 4 5 6 7 8 9 10 11 12 13 14
000
FTUS44 KOUN 271130
TAFPNC
TAF
KPNC 271130Z 2712/2812 14006KT P6SM FEW070 BKN250
      TEMPO 2713/2715 01008KT P6SM BKN025
     FM271700 17008KT P6SM BKN050
     FM280100 14006KT P6SM SCT050 BKN250=

USA.gov is the U.S. government's official web portal to all federal, state and local government web resources and services.